createdAt,value
2019-05-19T00:53:03.425Z,67.88
2019-05-19T00:55:36.830Z,65.01
2019-05-19T00:58:09.865Z,63.82
2019-05-19T01:00:43.031Z,63.37
2019-05-19T01:03:15.669Z,62.60
2019-05-19T01:05:49.966Z,62.22
2019-05-19T01:08:23.450Z,61.86
2019-05-19T01:10:56.035Z,62.19
2019-05-19T01:13:29.355Z,62.02
2019-05-19T01:16:02.770Z,61.25
2019-05-19T01:18:35.915Z,60.51
2019-05-19T01:21:08.975Z,60.81
2019-05-19T01:23:42.319Z,60.87
2019-05-19T01:26:15.575Z,60.69
2019-05-19T01:28:48.842Z,61.04
2019-05-19T01:31:21.908Z,61.28
2019-05-19T01:33:54.988Z,60.18
2019-05-19T01:36:27.725Z,60.63
2019-05-19T01:39:00.641Z,60.94
2019-05-19T01:41:36.248Z,60.65
2019-05-19T01:44:09.218Z,60.28
2019-05-19T01:46:42.383Z,60.63
2019-05-19T01:49:15.184Z,61.11
2019-05-19T01:51:47.420Z,60.97
2019-05-19T01:54:20.453Z,60.39
2019-05-19T01:56:52.743Z,59.20
2019-05-19T01:59:25.848Z,57.91
2019-05-19T02:01:58.489Z,57.78
2019-05-19T02:04:31.814Z,58.87
2019-05-19T02:07:04.054Z,57.11
2019-05-19T02:09:39.960Z,56.66
2019-05-19T02:12:12.111Z,55.94
2019-05-19T02:14:47.186Z,55.61
2019-05-19T02:17:19.936Z,56.02
2019-05-19T02:19:52.937Z,56.01
2019-05-19T02:22:25.345Z,55.58
2019-05-19T02:24:58.676Z,56.40
2019-05-19T02:27:33.041Z,54.94
2019-05-19T02:30:06.098Z,54.98
2019-05-19T02:32:38.530Z,56.07
2019-05-19T02:35:11.001Z,55.62
2019-05-19T02:37:42.599Z,55.10
2019-05-19T02:40:16.004Z,55.60
2019-05-19T02:42:51.288Z,55.09
2019-05-19T02:45:24.732Z,55.30
2019-05-19T02:47:57.153Z,54.54
2019-05-19T02:50:50.527Z,52.73
2019-05-19T02:53:08.066Z,51.92
2019-05-19T02:55:41.958Z,52.40
2019-05-19T02:58:14.563Z,52.17
2019-05-19T03:00:47.234Z,52.23
2019-05-19T03:03:19.939Z,51.61
2019-05-19T03:05:57.531Z,51.02
2019-05-19T03:08:30.636Z,51.55
2019-05-19T03:11:03.793Z,51.54
2019-05-19T03:13:35.745Z,50.99
2019-05-19T03:16:08.616Z,51.12
2019-05-19T03:18:41.564Z,51.53
2019-05-19T03:21:14.630Z,51.51
2019-05-19T03:23:48.572Z,51.49
2019-05-19T03:26:22.008Z,52.52
2019-05-19T03:28:57.915Z,52.60
2019-05-19T03:31:31.897Z,53.13
2019-05-19T03:34:05.613Z,52.84
2019-05-19T03:36:37.342Z,52.94
2019-05-19T03:39:09.480Z,52.56
2019-05-19T03:41:41.719Z,53.01
2019-05-19T03:44:15.785Z,53.24
2019-05-19T03:46:48.356Z,53.07
2019-05-19T03:49:20.682Z,53.40
2019-05-19T03:51:53.866Z,52.71
2019-05-19T03:54:27.985Z,52.16
2019-05-19T03:57:00.784Z,52.97
2019-05-19T03:59:34.181Z,53.40
2019-05-19T04:02:06.832Z,53.34
2019-05-19T04:04:40.750Z,53.08
2019-05-19T04:07:14.886Z,53.10
2019-05-19T04:09:47.183Z,53.93
2019-05-19T04:12:23.250Z,53.27
2019-05-19T04:14:57.978Z,52.68
2019-05-19T04:17:32.636Z,52.86
2019-05-19T04:20:04.372Z,52.53
2019-05-19T04:22:38.026Z,51.93
2019-05-19T04:25:11.802Z,51.54
2019-05-19T04:27:44.224Z,51.02
2019-05-19T04:30:18.509Z,50.65
2019-05-19T04:32:51.542Z,51.41
2019-05-19T04:35:23.603Z,51.80
2019-05-19T04:37:56.750Z,51.62
2019-05-19T04:40:29.059Z,50.61
2019-05-19T04:43:01.748Z,49.43
2019-05-19T04:45:34.302Z,49.17
2019-05-19T04:48:09.794Z,49.38
2019-05-19T04:50:42.339Z,49.91
2019-05-19T04:53:15.597Z,49.98
2019-05-19T04:55:48.769Z,50.84
2019-05-19T04:58:20.928Z,50.90
2019-05-19T05:00:52.893Z,50.96
2019-05-19T05:03:25.020Z,50.88
2019-05-19T05:05:58.238Z,51.63
2019-05-19T05:08:33.602Z,50.49
2019-05-19T05:11:06.271Z,50.49
2019-05-19T05:13:38.667Z,50.04
2019-05-19T05:16:10.681Z,50.41
2019-05-19T05:18:43.346Z,50.54
2019-05-19T05:21:15.845Z,50.43
2019-05-19T05:23:50.233Z,49.90
2019-05-19T05:26:22.868Z,48.82
2019-05-19T05:28:55.381Z,48.15
2019-05-19T05:31:29.184Z,46.86
2019-05-19T05:34:01.010Z,46.42
2019-05-19T05:36:32.788Z,46.57
2019-05-19T05:39:06.390Z,45.86
2019-05-19T05:41:39.668Z,46.10
2019-05-19T05:44:12.145Z,46.62
2019-05-19T05:46:44.948Z,47.54
2019-05-19T05:49:19.325Z,47.57
2019-05-19T05:51:52.307Z,47.88
2019-05-19T05:54:25.523Z,48.06
2019-05-19T05:56:58.105Z,47.93
2019-05-19T05:59:30.117Z,47.63
2019-05-19T06:02:02.228Z,48.50
2019-05-19T06:04:34.326Z,47.53
2019-05-19T06:07:06.945Z,47.08
2019-05-19T06:09:40.151Z,47.68
2019-05-19T06:12:12.877Z,48.09
2019-05-19T06:14:45.915Z,47.66
2019-05-19T06:17:19.640Z,47.02
2019-05-19T06:19:55.344Z,47.76
2019-05-19T06:22:27.125Z,47.84
2019-05-19T06:25:00.859Z,47.90
2019-05-19T06:27:34.867Z,48.07
2019-05-19T06:30:09.082Z,48.28
2019-05-19T06:32:44.019Z,48.59
2019-05-19T06:35:16.566Z,48.65
2019-05-19T06:37:49.243Z,47.93
2019-05-19T06:40:23.182Z,48.21
2019-05-19T06:42:56.200Z,47.58
2019-05-19T06:45:29.579Z,47.42
2019-05-19T06:48:03.481Z,47.47
2019-05-19T06:50:40.406Z,47.39
2019-05-19T06:53:14.604Z,47.11
2019-05-19T06:55:47.171Z,47.08
2019-05-19T06:58:20.788Z,47.22
2019-05-19T07:00:53.395Z,47.72
2019-05-19T07:03:27.572Z,47.81
2019-05-19T07:06:00.018Z,47.88
2019-05-19T07:08:32.431Z,46.56
2019-05-19T07:11:05.240Z,46.71
2019-05-19T07:13:37.701Z,47.35
2019-05-19T07:16:10.226Z,46.92
2019-05-19T07:18:42.838Z,47.33
2019-05-19T07:21:15.799Z,47.95
2019-05-19T07:23:48.355Z,48.69
2019-05-19T07:26:21.396Z,48.19
2019-05-19T07:28:53.939Z,48.67
2019-05-19T07:31:26.305Z,48.60
2019-05-19T07:33:58.337Z,47.30
2019-05-19T07:36:30.669Z,47.86
2019-05-19T07:39:02.896Z,48.57
2019-05-19T07:41:35.882Z,48.04
2019-05-19T07:44:08.588Z,47.22
2019-05-19T07:46:41.388Z,46.62
2019-05-19T07:49:14.197Z,45.57
2019-05-19T07:51:46.742Z,46.38
2019-05-19T07:54:19.089Z,45.70
2019-05-19T07:56:51.829Z,45.83
2019-05-19T07:59:24.101Z,45.19
2019-05-19T08:01:57.186Z,45.62
2019-05-19T08:04:30.805Z,45.37
2019-05-19T08:07:03.476Z,44.70
2019-05-19T08:09:35.910Z,45.03
2019-05-19T08:12:09.406Z,45.66
2019-05-19T08:14:46.337Z,46.10
2019-05-19T08:17:19.003Z,46.10
2019-05-19T08:19:51.207Z,46.62
2019-05-19T08:22:23.448Z,45.95
2019-05-19T08:24:56.561Z,46.52
2019-05-19T08:27:30.569Z,45.89
2019-05-19T08:30:03.948Z,46.13
2019-05-19T08:32:37.156Z,44.41
2019-05-19T08:35:22.324Z,45.34
2019-05-19T08:37:57.289Z,46.08
2019-05-19T08:40:31.322Z,45.66
2019-05-19T08:43:03.148Z,46.18
2019-05-19T08:45:37.177Z,45.88
2019-05-19T08:48:10.096Z,45.34
2019-05-19T08:50:42.514Z,46.35
2019-05-19T08:53:14.817Z,45.85
2019-05-19T08:55:47.112Z,46.51
2019-05-19T08:58:19.809Z,46.71
2019-05-19T09:00:52.527Z,46.34
2019-05-19T09:03:25.219Z,45.11
2019-05-19T09:06:00.608Z,45.37
2019-05-19T09:08:33.199Z,45.33
2019-05-19T09:11:09.016Z,45.57
2019-05-19T09:13:41.728Z,46.30
2019-05-19T09:16:16.058Z,46.12
2019-05-19T09:18:48.288Z,45.97
2019-05-19T09:21:21.581Z,46.25
2019-05-19T09:23:54.531Z,46.30
2019-05-19T09:26:26.895Z,46.23
2019-05-19T09:29:00.920Z,46.36
2019-05-19T09:31:33.845Z,45.33
2019-05-19T09:34:06.606Z,45.11
2019-05-19T09:36:43.704Z,45.59
2019-05-19T09:39:16.986Z,46.26
2019-05-19T09:41:50.525Z,46.22
2019-05-19T09:44:26.237Z,46.42
2019-05-19T09:47:08.428Z,47.11
2019-05-19T09:49:42.367Z,47.43
2019-05-19T09:52:17.585Z,46.85
2019-05-19T09:54:51.250Z,46.91
2019-05-19T09:57:23.988Z,46.81
2019-05-19T09:59:56.922Z,46.45
2019-05-19T10:02:29.333Z,46.73
2019-05-19T10:05:02.220Z,46.50
2019-05-19T10:07:34.385Z,46.73
2019-05-19T10:10:10.870Z,46.68
2019-05-19T10:12:44.275Z,46.83
2019-05-19T10:15:21.596Z,46.89
2019-05-19T10:17:54.447Z,46.80
2019-05-19T10:20:27.808Z,47.01
2019-05-19T10:22:59.945Z,45.71
2019-05-19T10:25:31.997Z,45.99
2019-05-19T10:28:05.779Z,45.83
2019-05-19T10:30:41.970Z,45.41
2019-05-19T10:33:14.622Z,45.70
2019-05-19T10:35:46.501Z,45.43
2019-05-19T10:38:18.674Z,45.62
2019-05-19T10:40:51.108Z,46.11
2019-05-19T10:43:23.955Z,45.92
2019-05-19T10:45:57.583Z,46.51
2019-05-19T10:48:30.032Z,46.71
2019-05-19T10:51:11.498Z,47.18
2019-05-19T10:53:43.015Z,46.07
2019-05-19T10:56:15.574Z,46.36
2019-05-19T10:58:49.672Z,46.02
2019-05-19T11:01:24.924Z,45.61
2019-05-19T11:03:58.763Z,45.87
2019-05-19T11:06:39.140Z,46.35
2019-05-19T11:09:12.193Z,46.70
2019-05-19T11:11:47.418Z,47.98
2019-05-19T11:14:25.995Z,48.61
2019-05-19T11:16:59.883Z,49.90
2019-05-19T11:19:34.194Z,50.46
2019-05-19T11:22:07.444Z,50.96
2019-05-19T11:24:39.875Z,51.33
2019-05-19T11:27:12.474Z,51.40
2019-05-19T11:29:44.587Z,51.76
2019-05-19T11:32:17.710Z,51.94
2019-05-19T11:34:51.651Z,52.17
2019-05-19T11:37:24.786Z,52.13
2019-05-19T11:39:58.021Z,52.40
2019-05-19T11:42:33.080Z,52.51
2019-05-19T11:45:06.147Z,52.68
2019-05-19T11:47:39.286Z,52.75
2019-05-19T11:50:12.959Z,52.89
2019-05-19T11:52:45.991Z,52.81
2019-05-19T11:55:19.121Z,52.96
2019-05-19T11:57:54.774Z,52.72
2019-05-19T12:00:27.047Z,52.51
2019-05-19T12:02:59.006Z,52.57
2019-05-19T12:05:31.695Z,53.05
2019-05-19T12:08:07.892Z,52.76
2019-05-19T12:10:40.211Z,52.82
2019-05-19T12:13:13.025Z,53.18
2019-05-19T12:15:45.738Z,53.17
2019-05-19T12:18:25.275Z,53.46
2019-05-19T12:21:04.667Z,53.37
2019-05-19T12:23:39.218Z,53.63
2019-05-19T12:26:23.318Z,53.74
2019-05-19T12:28:49.854Z,53.64
2019-05-19T12:31:25.343Z,54.09
2019-05-19T12:33:58.317Z,54.44
2019-05-19T12:36:31.262Z,54.19
2019-05-19T12:39:04.144Z,54.32
2019-05-19T12:41:37.309Z,54.33
2019-05-19T12:44:09.765Z,54.54
2019-05-19T12:46:48.714Z,54.33
2019-05-19T12:49:22.219Z,54.20
2019-05-19T12:52:02.089Z,54.18
2019-05-19T12:54:36.040Z,53.99
2019-05-19T12:57:08.225Z,53.98
2019-05-19T12:59:40.333Z,53.56
2019-05-19T13:02:24.887Z,53.69
2019-05-19T13:05:04.776Z,53.63
2019-05-19T13:07:32.394Z,53.70
2019-05-19T13:10:05.300Z,53.46
2019-05-19T13:12:38.116Z,53.66
2019-05-19T13:15:15.137Z,53.61
2019-05-19T13:17:47.640Z,53.81
2019-05-19T13:20:20.062Z,54.09
2019-05-19T13:22:53.124Z,54.25
2019-05-19T13:25:26.628Z,54.22
2019-05-19T13:27:59.726Z,54.30
2019-05-19T13:30:32.281Z,53.79
2019-05-19T13:33:08.361Z,53.37
2019-05-19T13:35:43.967Z,53.15
2019-05-19T13:38:25.569Z,52.89
2019-05-19T13:40:57.250Z,52.69
2019-05-19T13:43:29.934Z,52.71
2019-05-19T13:46:04.377Z,53.16
2019-05-19T13:48:37.269Z,53.63
2019-05-19T13:51:10.329Z,54.32
2019-05-19T13:53:43.354Z,55.21
2019-05-19T13:56:15.797Z,56.16
2019-05-19T13:58:48.630Z,56.43
2019-05-19T14:01:28.687Z,57.15
2019-05-19T14:03:54.675Z,57.42
2019-05-19T14:06:27.673Z,58.13
2019-05-19T14:09:01.456Z,58.31
2019-05-19T14:11:36.127Z,58.58
2019-05-19T14:14:10.377Z,58.69
2019-05-19T14:16:43.276Z,58.98
2019-05-19T14:19:16.074Z,59.63
2019-05-19T14:21:48.995Z,60.08
2019-05-19T14:24:21.407Z,60.48
2019-05-19T14:26:54.390Z,60.67
2019-05-19T14:29:26.707Z,60.88
2019-05-19T14:32:06.786Z,61.17
2019-05-19T14:34:39.408Z,61.50
2019-05-19T14:37:11.701Z,61.27
2019-05-19T14:39:44.718Z,61.13
2019-05-19T14:42:18.974Z,60.85
2019-05-19T14:44:51.692Z,61.27
2019-05-19T14:47:25.303Z,61.72
2019-05-19T14:49:57.709Z,62.54
2019-05-19T14:52:30.406Z,63.15
2019-05-19T14:55:28.436Z,63.30
2019-05-19T14:58:03.365Z,63.87
2019-05-19T15:00:35.462Z,64.48
2019-05-19T15:03:09.200Z,64.89
2019-05-19T15:05:41.729Z,65.31
2019-05-19T15:08:14.609Z,65.63
2019-05-19T15:10:47.540Z,65.70
2019-05-19T15:13:22.592Z,65.54
2019-05-19T15:15:57.953Z,65.51
2019-05-19T15:20:16.656Z,66.34
2019-05-19T15:22:51.744Z,66.60
2019-05-19T15:25:24.351Z,67.33
2019-05-19T15:28:05.639Z,67.13
2019-05-19T15:30:44.115Z,66.66
2019-05-19T15:33:25.237Z,66.18
2019-05-19T15:35:58.009Z,66.42
2019-05-19T15:38:30.847Z,66.93
2019-05-19T15:41:03.263Z,67.21
2019-05-19T15:43:36.147Z,66.61
2019-05-19T15:46:11.762Z,66.62
2019-05-19T15:48:45.323Z,67.17
2019-05-19T15:51:28.735Z,67.34
2019-05-19T15:53:55.326Z,67.59
2019-05-19T15:56:27.524Z,67.27
2019-05-19T15:59:00.155Z,66.78
2019-05-19T16:01:33.228Z,66.74
2019-05-19T16:04:06.890Z,67.16
2019-05-19T16:06:40.169Z,66.74
2019-05-19T16:09:18.713Z,66.98
2019-05-19T16:11:51.162Z,67.00
2019-05-19T16:14:23.893Z,66.91
2019-05-19T16:17:03.079Z,67.62
2019-05-19T16:19:36.528Z,66.80
2019-05-19T16:22:09.189Z,67.16
2019-05-19T16:24:49.172Z,67.85
2019-05-19T16:27:22.136Z,67.37
2019-05-19T16:30:02.057Z,67.48
2019-05-19T16:32:34.521Z,67.87
2019-05-19T16:35:11.177Z,67.90
2019-05-19T16:37:51.599Z,68.22
2019-05-19T16:40:25.401Z,68.13
2019-05-19T16:42:58.176Z,68.58
2019-05-19T16:45:30.619Z,68.40
2019-05-19T16:48:02.862Z,67.39
2019-05-19T16:50:35.336Z,67.94
2019-05-19T16:53:08.091Z,67.26
2019-05-19T16:55:44.775Z,66.92
2019-05-19T16:58:21.196Z,67.68
2019-05-19T17:00:59.100Z,67.65
2019-05-19T17:03:31.657Z,68.60
2019-05-19T17:06:12.270Z,68.64
2019-05-19T17:08:45.915Z,68.74
2019-05-19T17:11:22.410Z,69.18
2019-05-19T17:13:56.474Z,69.66
2019-05-19T17:16:32.838Z,69.98
2019-05-19T17:19:05.139Z,70.52
2019-05-19T17:21:36.993Z,69.67
2019-05-19T17:24:09.062Z,69.63
2019-05-19T17:26:41.038Z,70.40
2019-05-19T17:29:13.500Z,70.33
2019-05-19T17:31:45.774Z,70.51
2019-05-19T17:34:18.251Z,69.73
2019-05-19T17:36:50.206Z,69.17
2019-05-19T17:39:22.686Z,69.34
2019-05-19T17:41:55.495Z,69.65
2019-05-19T17:44:28.200Z,69.43
2019-05-19T17:47:01.490Z,69.90
2019-05-19T17:49:34.898Z,70.79
2019-05-19T17:52:15.034Z,70.15
2019-05-19T17:54:49.458Z,70.11
2019-05-19T17:57:22.428Z,70.79
2019-05-19T17:59:56.360Z,70.33
2019-05-19T18:02:32.528Z,70.15
2019-05-19T18:05:05.372Z,70.62
2019-05-19T18:07:38.263Z,71.16
2019-05-19T18:10:10.628Z,70.75
2019-05-19T18:12:43.027Z,71.06
2019-05-19T18:15:23.628Z,71.38
2019-05-19T18:17:56.778Z,71.76
2019-05-19T18:20:31.871Z,72.09
2019-05-19T18:23:05.037Z,71.43
2019-05-19T18:25:43.146Z,71.96
2019-05-19T18:28:15.900Z,71.17
2019-05-19T18:30:48.550Z,70.81
2019-05-19T18:33:22.186Z,71.38
2019-05-19T18:35:58.062Z,71.37
2019-05-19T18:38:30.541Z,71.04
2019-05-19T18:41:03.837Z,71.34
2019-05-19T18:43:37.238Z,71.98
2019-05-19T18:48:50.420Z,71.66
2019-05-19T18:51:23.301Z,71.36
2019-05-19T18:53:56.101Z,71.31
2019-05-19T18:56:36.142Z,71.73
2019-05-19T18:59:09.000Z,71.42
2019-05-19T19:01:41.791Z,71.61
2019-05-19T19:04:16.187Z,72.45
2019-05-19T19:06:55.116Z,72.44
2019-05-19T19:09:29.329Z,72.62
2019-05-19T19:12:02.542Z,72.25
2019-05-19T19:14:35.475Z,72.42
2019-05-19T19:17:08.301Z,72.18
2019-05-19T19:19:41.762Z,72.83
2019-05-19T19:22:15.220Z,73.14
2019-05-19T19:24:48.521Z,72.84
2019-05-19T19:27:25.273Z,73.27
2019-05-19T19:30:03.713Z,72.18
2019-05-19T19:32:35.236Z,73.28
2019-05-19T19:35:09.661Z,72.77
2019-05-19T19:37:43.284Z,73.43
2019-05-19T19:40:16.034Z,72.26
2019-05-19T19:42:51.254Z,71.95
2019-05-19T19:45:26.049Z,72.82
2019-05-19T19:47:59.457Z,72.58
2019-05-19T19:50:32.392Z,73.38
2019-05-19T19:53:04.996Z,73.66
2019-05-19T19:55:37.980Z,74.55
2019-05-19T19:58:10.820Z,74.19
2019-05-19T20:00:45.784Z,74.68
2019-05-19T20:03:18.980Z,73.83
2019-05-19T20:05:56.386Z,73.66
2019-05-19T20:08:30.373Z,74.67
2019-05-19T20:11:11.976Z,74.33
2019-05-19T20:13:44.914Z,74.31
2019-05-19T20:16:25.025Z,74.51
2019-05-19T20:19:09.187Z,74.04
2019-05-19T20:21:42.114Z,74.50
2019-05-19T20:24:14.444Z,73.53
2019-05-19T20:26:46.797Z,74.05
2019-05-19T20:29:19.471Z,74.07
2019-05-19T20:31:58.807Z,74.09
2019-05-19T20:34:32.174Z,74.94
2019-05-19T20:37:05.096Z,73.02
2019-05-19T20:39:37.979Z,73.82
2019-05-19T20:42:17.835Z,74.04
2019-05-19T20:44:50.638Z,73.40
2019-05-19T20:47:29.708Z,72.80
2019-05-19T20:50:02.541Z,73.58
2019-05-19T20:52:36.182Z,73.85
2019-05-19T20:57:53.269Z,74.79
2019-05-19T21:00:26.348Z,72.52
2019-05-19T21:02:59.348Z,73.44
2019-05-19T21:05:32.695Z,72.62
2019-05-19T21:08:05.522Z,71.85
2019-05-19T21:10:38.515Z,72.36
2019-05-19T21:13:11.553Z,71.14
2019-05-19T21:15:47.623Z,70.51
2019-05-19T21:18:22.023Z,72.60
2019-05-19T21:20:57.844Z,72.23
2019-05-19T21:23:31.928Z,73.27
2019-05-19T21:26:05.217Z,72.42
2019-05-19T21:28:45.216Z,70.41
2019-05-19T21:31:24.644Z,72.69
2019-05-19T21:33:57.094Z,72.02
2019-05-19T21:36:30.136Z,72.28
2019-05-19T21:39:02.721Z,72.65
2019-05-19T21:41:35.902Z,73.26
2019-05-19T21:44:10.089Z,72.75
2019-05-19T21:46:43.116Z,73.67
2019-05-19T21:49:15.636Z,73.01
2019-05-19T21:51:47.865Z,73.99
2019-05-19T21:54:20.880Z,73.05
2019-05-19T21:56:53.779Z,72.48
2019-05-19T21:59:26.739Z,72.49
2019-05-19T22:02:04.088Z,73.30
2019-05-19T22:04:37.352Z,74.62
2019-05-19T22:07:11.476Z,73.35
2019-05-19T22:09:44.777Z,73.58
2019-05-19T22:12:18.653Z,72.59
2019-05-19T22:14:57.833Z,72.64
2019-05-19T22:17:36.856Z,72.80
2019-05-19T22:20:10.155Z,71.79
2019-05-19T22:22:42.098Z,72.64
2019-05-19T22:25:22.998Z,71.65
2019-05-19T22:27:56.254Z,72.21
2019-05-19T22:30:29.222Z,72.40
2019-05-19T22:33:01.885Z,72.32
2019-05-19T22:35:35.728Z,72.33
2019-05-19T22:38:09.592Z,72.46
2019-05-19T22:40:42.796Z,72.48
2019-05-19T22:43:15.929Z,72.17
2019-05-19T22:45:48.996Z,72.73
2019-05-19T22:48:22.038Z,71.99
2019-05-19T22:50:54.819Z,71.88
2019-05-19T22:53:32.565Z,72.01
2019-05-19T22:56:06.767Z,70.06
2019-05-19T22:58:41.646Z,72.03
2019-05-19T23:01:14.264Z,72.06
2019-05-19T23:03:47.741Z,72.24
2019-05-19T23:06:22.024Z,71.65
2019-05-19T23:08:54.666Z,71.71
2019-05-19T23:11:27.199Z,71.98
2019-05-19T23:13:59.913Z,72.71
2019-05-19T23:16:32.393Z,72.79
2019-05-19T23:19:05.322Z,71.07
2019-05-19T23:21:38.329Z,72.25
2019-05-19T23:24:12.407Z,71.80
2019-05-19T23:26:45.084Z,69.69
2019-05-19T23:29:17.640Z,71.26
2019-05-19T23:31:50.501Z,71.57
2019-05-19T23:34:23.217Z,71.17
2019-05-19T23:36:58.429Z,73.14
2019-05-19T23:39:32.853Z,72.23
2019-05-19T23:42:06.010Z,71.34
2019-05-19T23:44:39.223Z,71.14
2019-05-19T23:47:11.982Z,71.74
2019-05-19T23:49:45.445Z,70.92
2019-05-19T23:52:25.031Z,71.60
2019-05-19T23:54:58.320Z,72.29
2019-05-19T23:57:30.075Z,72.37
